UPSVAC Airport Information Service

Emmonak Airport

ICAO: PAEM Country: Emmonak, Alaska USA
Latitude: 62.7861 Longitude: -164.491
Latest Arrival : AMF211 (PANC-PAEM) Latest Departure : AMF212 (PAEM-PANC)


WX CaptureLIVE
Data provided by noaa.gov | Fetched at 13:12:43

METAR : PAEM 151752Z AUTO 33007KT 10SM CLR M07/M09 A3028 RMK NOSPECI

TAF :


Runway Data for PAEM
Data provided by openaviationdata.com

Runway ID Mag Var Hdg Length Elevation Surface ILS Freq ILS Id ILS Slope
16 18 158° 4387 ft 14 ft Gravel -- -- --
34 18 338° 4387 ft 14 ft Gravel -- -- --

Emmonak Airport, Emmonak, Alaska USA
Use only for reference purposes



Not for navigational purposes.